Terminal Aerodrome Forecast
Issued by NWS Shreveport, LA

Home | Current Version | Previous Version | Text Only | Print | Product List | Glossary On
Versions: 1 2 3 4 5 6 7 8 9 10 11 12 13 14 15
000
FTUS44 KSHV 222300
TAFGGG
TAF
KGGG 222331Z 2300/2324 VRB03KT P6SM SKC
      TEMPO 2309/2313 5SM BR
     FM231600 VRB04KT P6SM SCT030 SCT250
     FM231800 VRB04KT P6SM BKN045 BKN250
     FM232000 VRB04KT P6SM SCT050 BKN140 BKN250=

USA.gov is the U.S. government's official web portal to all federal, state and local government web resources and services.